createdAt,value
2022-10-05T00:01:48.594Z,2.93
2022-10-05T00:04:35.466Z,2.50
2022-10-05T00:07:24.475Z,2.60
2022-10-05T00:10:17.118Z,2.83
2022-10-05T00:13:12.294Z,2.57
2022-10-05T00:16:05.681Z,2.67
2022-10-05T00:18:54.651Z,2.80
2022-10-05T00:21:41.859Z,2.83
2022-10-05T00:24:29.616Z,2.27
2022-10-05T00:27:20.732Z,2.70
2022-10-05T00:30:14.731Z,2.57
2022-10-05T00:33:02.535Z,2.40
2022-10-05T00:35:49.955Z,2.50
2022-10-05T00:38:36.989Z,2.87
2022-10-05T00:41:30.524Z,2.40
2022-10-05T00:44:33.684Z,2.60
2022-10-05T00:47:35.549Z,2.73
2022-10-05T00:50:49.130Z,2.83
2022-10-05T00:53:44.683Z,2.60
2022-10-05T00:56:56.455Z,2.60
2022-10-05T00:59:58.981Z,2.67
2022-10-05T01:02:54.434Z,2.80
2022-10-05T01:05:57.546Z,2.83
2022-10-05T01:08:52.610Z,3.00
2022-10-05T01:11:44.552Z,2.90
2022-10-05T01:14:38.353Z,3.10
2022-10-05T01:17:33.339Z,3.13
2022-10-05T01:20:40.200Z,2.80
2022-10-05T01:24:02.686Z,2.70
2022-10-05T01:27:16.700Z,2.73
2022-10-05T01:30:09.197Z,2.90
2022-10-05T01:33:03.549Z,2.67
2022-10-05T01:36:00.541Z,2.87
2022-10-05T01:38:58.796Z,2.90
2022-10-05T01:41:56.197Z,2.60
2022-10-05T01:44:54.347Z,2.93
2022-10-05T01:47:46.763Z,3.53
2022-10-05T01:50:43.855Z,2.93
2022-10-05T01:53:41.409Z,2.73
2022-10-05T01:56:36.785Z,3.23
2022-10-05T01:59:35.861Z,3.30
2022-10-05T02:02:25.355Z,3.40
2022-10-05T02:05:19.288Z,3.17
2022-10-05T02:08:10.649Z,3.20
2022-10-05T02:11:03.185Z,2.87
2022-10-05T02:13:54.039Z,3.00
2022-10-05T02:16:42.972Z,3.03
2022-10-05T02:19:36.105Z,3.27
2022-10-05T02:22:31.786Z,3.03
2022-10-05T02:25:22.403Z,3.07
2022-10-05T02:28:13.573Z,2.90
2022-10-05T02:31:07.933Z,2.90
2022-10-05T02:34:23.823Z,3.47
2022-10-05T02:37:25.202Z,3.07
2022-10-05T02:40:24.984Z,3.10
2022-10-05T02:43:27.943Z,3.27
2022-10-05T02:46:25.475Z,3.00
2022-10-05T02:49:23.639Z,3.07
2022-10-05T02:52:17.737Z,3.53
2022-10-05T02:55:10.313Z,3.40
2022-10-05T02:58:04.149Z,3.10
2022-10-05T03:01:00.930Z,3.40
2022-10-05T03:03:58.167Z,3.07
2022-10-05T03:06:52.822Z,3.40
2022-10-05T03:09:48.820Z,3.03
2022-10-05T03:12:45.649Z,3.70
2022-10-05T03:15:50.896Z,3.20
2022-10-05T03:18:49.542Z,3.50
2022-10-05T03:21:49.789Z,3.40
2022-10-05T03:24:56.222Z,3.37
2022-10-05T03:27:51.290Z,3.27
2022-10-05T03:30:45.221Z,3.10
2022-10-05T03:33:43.123Z,3.00
2022-10-05T03:36:37.429Z,3.40
2022-10-05T03:39:32.489Z,3.00
2022-10-05T03:42:31.171Z,2.83
2022-10-05T03:45:24.637Z,3.00
2022-10-05T03:48:16.517Z,3.17
2022-10-05T03:51:12.077Z,3.13
2022-10-05T03:54:10.031Z,2.90
2022-10-05T03:57:04.146Z,3.00
2022-10-05T03:59:59.824Z,3.20
2022-10-05T04:02:52.149Z,3.23
2022-10-05T04:05:44.492Z,2.90
2022-10-05T04:08:38.074Z,3.27
2022-10-05T04:11:29.481Z,3.50
2022-10-05T04:14:23.647Z,3.27
2022-10-05T04:17:17.519Z,3.63
2022-10-05T04:20:18.421Z,2.93
2022-10-05T04:23:18.198Z,3.53
2022-10-05T04:26:09.000Z,3.53
2022-10-05T04:28:59.977Z,3.23
2022-10-05T04:32:02.331Z,3.60
2022-10-05T04:35:04.370Z,3.67
2022-10-05T04:37:59.351Z,3.07
2022-10-05T04:41:02.421Z,3.93
2022-10-05T04:44:02.977Z,3.77
2022-10-05T04:47:05.028Z,3.70
2022-10-05T04:50:08.683Z,4.17
2022-10-05T04:53:02.783Z,3.30
2022-10-05T04:55:56.635Z,3.17
2022-10-05T04:59:05.848Z,3.30
2022-10-05T05:02:05.885Z,3.43
2022-10-05T05:05:20.560Z,3.50
2022-10-05T05:08:25.960Z,3.23
2022-10-05T05:11:28.710Z,3.83
2022-10-05T05:14:45.483Z,3.40
2022-10-05T05:17:47.724Z,3.03
2022-10-05T05:20:50.232Z,4.23
2022-10-05T05:23:45.312Z,3.27
2022-10-05T05:26:48.800Z,3.30
2022-10-05T05:29:44.886Z,3.83
2022-10-05T05:32:42.060Z,3.27
2022-10-05T05:35:58.773Z,3.80
2022-10-05T05:38:53.854Z,3.23
2022-10-05T05:41:49.539Z,3.30
2022-10-05T05:44:42.630Z,2.70
2022-10-05T05:47:35.212Z,3.33
2022-10-05T05:50:34.998Z,2.90
2022-10-05T05:53:30.380Z,3.33
2022-10-05T05:56:21.569Z,2.37
2022-10-05T05:59:18.601Z,3.73
2022-10-05T06:02:10.493Z,3.20
2022-10-05T06:05:03.794Z,3.50
2022-10-05T06:07:52.610Z,3.90
2022-10-05T06:10:46.323Z,2.93
2022-10-05T06:13:36.006Z,2.87
2022-10-05T06:16:31.095Z,2.77
2022-10-05T06:19:21.345Z,2.77
2022-10-05T06:22:17.160Z,2.70
2022-10-05T06:25:19.352Z,2.57
2022-10-05T06:28:12.470Z,2.53
2022-10-05T06:31:19.895Z,2.80
2022-10-05T06:34:29.724Z,3.10
2022-10-05T06:37:29.746Z,2.63
2022-10-05T06:40:28.669Z,2.63
2022-10-05T06:43:32.942Z,2.57
2022-10-05T06:46:56.831Z,2.27
2022-10-05T06:50:32.518Z,2.70
2022-10-05T06:53:35.796Z,2.77
2022-10-05T06:56:30.345Z,2.53
2022-10-05T06:59:28.622Z,2.50
2022-10-05T07:02:23.896Z,2.80
2022-10-05T07:05:35.506Z,2.47
2022-10-05T07:08:34.989Z,2.23
2022-10-05T07:11:45.444Z,2.30
2022-10-05T07:14:46.978Z,2.55
2022-10-05T07:17:45.635Z,2.70
2022-10-05T07:20:39.389Z,2.35
2022-10-05T07:23:38.618Z,2.30
2022-10-05T07:26:33.044Z,2.60
2022-10-05T07:29:24.396Z,2.25
2022-10-05T07:32:25.531Z,2.30
2022-10-05T07:35:38.774Z,2.20
2022-10-05T07:38:32.011Z,2.45
2022-10-05T07:41:25.482Z,2.78
2022-10-05T07:44:19.814Z,2.15
2022-10-05T07:47:16.321Z,2.35
2022-10-05T07:50:08.687Z,1.92
2022-10-05T07:52:59.114Z,2.10
2022-10-05T07:55:51.090Z,2.05
2022-10-05T07:58:44.313Z,2.33
2022-10-05T08:01:35.901Z,2.08
2022-10-05T08:04:31.535Z,2.20
2022-10-05T08:07:19.780Z,2.45
2022-10-05T08:10:19.388Z,2.20
2022-10-05T08:13:13.779Z,2.25
2022-10-05T08:16:04.457Z,2.50
2022-10-05T08:18:58.164Z,2.22
2022-10-05T08:21:51.749Z,2.08
2022-10-05T08:24:45.047Z,2.15
2022-10-05T08:27:39.789Z,2.10
2022-10-05T08:30:26.716Z,1.83
2022-10-05T08:33:17.917Z,2.08
2022-10-05T08:36:11.350Z,2.00
2022-10-05T08:39:03.942Z,2.10
2022-10-05T08:42:27.689Z,2.47
2022-10-05T08:46:06.276Z,2.17
2022-10-05T08:49:22.772Z,2.67
2022-10-05T08:52:29.870Z,1.92
2022-10-05T08:55:39.226Z,1.85
2022-10-05T08:58:53.091Z,1.88
2022-10-05T09:01:57.672Z,2.47
2022-10-05T09:05:01.477Z,1.95
2022-10-05T09:08:20.656Z,2.65
2022-10-05T09:11:13.577Z,2.20
2022-10-05T09:14:29.206Z,2.22
2022-10-05T09:17:37.121Z,2.25
2022-10-05T09:20:32.214Z,1.83
2022-10-05T09:23:36.688Z,2.00
2022-10-05T09:26:45.553Z,2.22
2022-10-05T09:30:06.595Z,2.20
2022-10-05T09:33:54.189Z,1.92
2022-10-05T09:37:21.341Z,2.40
2022-10-05T09:40:50.432Z,2.15
2022-10-05T09:44:15.200Z,2.38
2022-10-05T09:47:50.553Z,2.90
2022-10-05T09:51:10.063Z,2.03
2022-10-05T09:54:43.127Z,2.38
2022-10-05T09:57:57.056Z,2.33
2022-10-05T10:01:15.503Z,1.70
2022-10-05T10:04:29.662Z,2.67
2022-10-05T10:07:42.494Z,2.08
2022-10-05T10:11:05.366Z,2.30
2022-10-05T10:14:13.030Z,2.50
2022-10-05T10:17:08.639Z,2.35
2022-10-05T10:20:14.562Z,2.20
2022-10-05T10:23:21.141Z,2.42
2022-10-05T10:26:32.325Z,2.40
2022-10-05T10:29:53.209Z,2.22
2022-10-05T10:33:28.313Z,2.25
2022-10-05T10:36:19.250Z,2.33
2022-10-05T10:39:13.357Z,2.45
2022-10-05T10:42:26.747Z,2.25
2022-10-05T10:45:28.113Z,2.22
2022-10-05T10:48:51.232Z,2.67
2022-10-05T10:52:05.895Z,2.30
2022-10-05T10:55:26.101Z,2.28
2022-10-05T10:58:55.119Z,2.78
2022-10-05T11:01:50.320Z,2.38
2022-10-05T11:05:02.878Z,2.20
2022-10-05T11:08:09.802Z,2.95
2022-10-05T11:11:20.613Z,2.60
2022-10-05T11:14:51.666Z,2.28
2022-10-05T11:17:59.027Z,2.55
2022-10-05T11:21:03.702Z,3.00
2022-10-05T11:24:32.631Z,2.30
2022-10-05T11:27:52.449Z,2.45
2022-10-05T11:31:20.072Z,2.30
2022-10-05T11:34:44.711Z,2.42
2022-10-05T11:37:59.922Z,2.80
2022-10-05T11:41:11.346Z,2.72
2022-10-05T11:44:35.789Z,2.38
2022-10-05T11:47:28.829Z,2.67
2022-10-05T11:50:21.943Z,2.65
2022-10-05T11:53:15.477Z,2.30
2022-10-05T11:56:09.600Z,2.58
2022-10-05T11:59:02.641Z,2.55
2022-10-05T12:01:55.910Z,2.72
2022-10-05T12:04:53.008Z,2.75
2022-10-05T12:07:48.671Z,2.47
2022-10-05T12:10:42.911Z,2.35
2022-10-05T12:13:40.116Z,2.20
2022-10-05T12:16:34.741Z,2.40
2022-10-05T12:19:28.615Z,2.25
2022-10-05T12:22:22.596Z,2.28
2022-10-05T12:25:28.023Z,1.88
2022-10-05T12:28:19.505Z,2.22
2022-10-05T12:31:31.057Z,1.90
2022-10-05T12:34:27.183Z,1.90
2022-10-05T12:37:42.394Z,1.90
2022-10-05T12:40:37.072Z,2.08
2022-10-05T12:43:31.771Z,2.00
2022-10-05T12:46:27.504Z,2.00
2022-10-05T12:49:25.997Z,1.88
2022-10-05T12:52:28.023Z,2.20
2022-10-05T12:55:25.971Z,1.90
2022-10-05T12:58:24.105Z,1.80
2022-10-05T13:01:24.042Z,1.85
2022-10-05T13:04:26.359Z,2.00
2022-10-05T13:07:33.434Z,1.73
2022-10-05T13:10:34.430Z,1.98
2022-10-05T13:13:35.265Z,1.80
2022-10-05T13:16:33.225Z,2.08
2022-10-05T13:19:35.193Z,1.88
2022-10-05T13:22:32.647Z,1.80
2022-10-05T13:25:28.471Z,1.73
2022-10-05T13:28:20.312Z,1.70
2022-10-05T13:31:19.506Z,1.77
2022-10-05T13:34:22.173Z,1.67
2022-10-05T13:37:17.819Z,1.80
2022-10-05T13:40:21.683Z,1.70
2022-10-05T13:43:20.935Z,2.08
2022-10-05T13:46:14.451Z,1.70
2022-10-05T13:49:16.677Z,1.70
2022-10-05T13:52:17.527Z,1.92
2022-10-05T13:55:17.072Z,1.75
2022-10-05T13:58:12.554Z,1.70
2022-10-05T14:01:03.715Z,1.70
2022-10-05T14:04:10.999Z,2.05
2022-10-05T14:07:14.567Z,1.90
2022-10-05T14:10:04.472Z,2.30
2022-10-05T14:12:55.695Z,2.13
2022-10-05T14:15:56.097Z,1.80
2022-10-05T14:18:55.377Z,2.45
2022-10-05T14:21:49.470Z,2.30
2022-10-05T14:24:44.302Z,2.05
2022-10-05T14:27:36.376Z,1.98
2022-10-05T14:30:26.178Z,2.15
2022-10-05T14:33:17.397Z,2.17
2022-10-05T14:36:16.120Z,2.30
2022-10-05T14:39:05.037Z,2.33
2022-10-05T14:41:52.397Z,2.00
2022-10-05T14:44:39.400Z,2.15
2022-10-05T14:47:30.524Z,2.00
2022-10-05T14:50:20.587Z,2.15
2022-10-05T14:53:17.483Z,2.08
2022-10-05T14:56:19.493Z,2.05
2022-10-05T14:59:25.682Z,2.08
2022-10-05T15:02:35.197Z,1.90
2022-10-05T15:05:31.183Z,1.85
2022-10-05T15:08:48.491Z,1.88
2022-10-05T15:11:43.475Z,2.20
2022-10-05T15:14:32.743Z,1.85
2022-10-05T15:17:26.978Z,2.15
2022-10-05T15:20:21.243Z,2.22
2022-10-05T15:23:23.704Z,2.20
2022-10-05T15:26:26.055Z,1.90
2022-10-05T15:29:26.048Z,2.05
2022-10-05T15:32:22.487Z,2.22
2022-10-05T15:35:43.584Z,2.05
2022-10-05T15:38:40.175Z,2.88
2022-10-05T15:41:45.544Z,1.80
2022-10-05T15:44:58.865Z,2.38
2022-10-05T15:47:52.912Z,1.63
2022-10-05T15:50:56.828Z,1.98
2022-10-05T15:53:52.701Z,3.00
2022-10-05T15:56:47.395Z,3.45
2022-10-05T15:59:39.643Z,5.50
2022-10-05T16:02:38.296Z,4.32
2022-10-05T16:06:09.842Z,2.10
2022-10-05T16:09:07.521Z,4.25
2022-10-05T16:12:04.091Z,2.65
2022-10-05T16:15:16.793Z,2.35
2022-10-05T16:18:36.594Z,2.58
2022-10-05T16:21:30.890Z,3.05
2022-10-05T16:24:28.605Z,2.60
2022-10-05T16:27:24.581Z,2.80
2022-10-05T16:30:18.059Z,3.13
2022-10-05T16:33:12.786Z,3.72
2022-10-05T16:36:08.032Z,2.28
2022-10-05T16:39:01.552Z,2.45
2022-10-05T16:41:56.781Z,2.50
2022-10-05T16:44:54.322Z,2.47
2022-10-05T16:47:47.784Z,2.03
2022-10-05T16:50:44.399Z,2.15
2022-10-05T16:53:37.833Z,2.40
2022-10-05T16:56:29.752Z,2.38
2022-10-05T16:59:52.665Z,3.00
2022-10-05T17:02:53.908Z,2.90
2022-10-05T17:05:56.774Z,2.47
2022-10-05T17:09:10.854Z,2.45
2022-10-05T17:12:26.704Z,2.50
2022-10-05T17:15:30.167Z,2.63
2022-10-05T17:18:29.657Z,2.60
2022-10-05T17:21:23.418Z,2.63
2022-10-05T17:24:28.961Z,2.90
2022-10-05T17:27:20.473Z,2.85
2022-10-05T17:30:23.738Z,2.72
2022-10-05T17:33:28.901Z,3.00
2022-10-05T17:36:19.703Z,3.03
2022-10-05T17:39:16.645Z,3.03
2022-10-05T17:42:39.675Z,3.22
2022-10-05T17:45:56.762Z,3.05
2022-10-05T17:49:08.286Z,3.13
2022-10-05T17:52:27.318Z,3.20
2022-10-05T17:55:35.980Z,3.45
2022-10-05T17:59:02.601Z,3.15
2022-10-05T18:02:15.912Z,3.65
2022-10-05T18:05:16.440Z,3.72
2022-10-05T18:08:31.828Z,3.38
2022-10-05T18:11:37.499Z,3.35
2022-10-05T18:14:26.311Z,4.03
2022-10-05T18:17:14.199Z,3.70
2022-10-05T18:20:32.583Z,3.78
2022-10-05T18:23:35.312Z,3.63
2022-10-05T18:26:32.174Z,3.50
2022-10-05T18:29:45.063Z,4.07
2022-10-05T18:32:47.945Z,3.50
2022-10-05T18:35:46.633Z,3.22
2022-10-05T18:38:52.868Z,3.53
2022-10-05T18:41:57.190Z,3.90
2022-10-05T18:44:48.117Z,3.42
2022-10-05T18:47:42.145Z,3.40
2022-10-05T18:50:34.547Z,3.95
2022-10-05T18:53:31.349Z,3.40
2022-10-05T18:56:26.893Z,3.35
2022-10-05T18:59:31.286Z,3.05
2022-10-05T19:02:26.144Z,3.30
2022-10-05T19:05:47.397Z,3.10
2022-10-05T19:08:44.844Z,3.30
2022-10-05T19:11:39.523Z,3.33
2022-10-05T19:14:38.374Z,3.63
2022-10-05T19:17:29.203Z,3.03
2022-10-05T19:20:24.362Z,3.05
2022-10-05T19:23:27.698Z,2.88
2022-10-05T19:26:20.843Z,2.78
2022-10-05T19:29:22.543Z,2.92
2022-10-05T19:32:18.772Z,2.72
2022-10-05T19:35:17.621Z,2.70
2022-10-05T19:38:16.723Z,2.65
2022-10-05T19:41:13.457Z,2.97
2022-10-05T19:44:17.553Z,3.00
2022-10-05T19:47:17.392Z,2.80
2022-10-05T19:50:21.185Z,2.38
2022-10-05T19:53:14.277Z,2.53
2022-10-05T19:56:20.055Z,2.67
2022-10-05T19:59:19.988Z,2.67
2022-10-05T20:02:07.290Z,2.60
2022-10-05T20:04:56.510Z,2.90
2022-10-05T20:07:43.951Z,3.03
2022-10-05T20:10:31.887Z,2.97
2022-10-05T20:13:20.875Z,2.88
2022-10-05T20:16:35.577Z,3.00
2022-10-05T20:19:46.310Z,2.80
2022-10-05T20:22:35.114Z,3.05
2022-10-05T20:25:32.847Z,2.72
2022-10-05T20:28:31.822Z,2.80
2022-10-05T20:31:20.461Z,2.90
2022-10-05T20:34:08.085Z,3.03
2022-10-05T20:36:55.362Z,2.50
2022-10-05T20:39:43.080Z,3.00
2022-10-05T20:42:30.236Z,2.88
2022-10-05T20:45:17.404Z,2.58
2022-10-05T20:48:05.956Z,2.70
2022-10-05T20:50:53.302Z,2.75
2022-10-05T20:53:40.702Z,2.60
2022-10-05T20:56:29.487Z,3.15
2022-10-05T20:59:17.199Z,2.60
2022-10-05T21:02:04.486Z,2.15
2022-10-05T21:04:53.097Z,2.70
2022-10-05T21:07:40.862Z,3.10
2022-10-05T21:10:28.180Z,2.53
2022-10-05T21:13:14.969Z,2.65
2022-10-05T21:16:02.283Z,2.10
2022-10-05T21:18:49.799Z,3.00
2022-10-05T21:21:38.756Z,2.40
2022-10-05T21:24:26.565Z,2.65
2022-10-05T21:27:13.904Z,2.67
2022-10-05T21:30:01.248Z,2.45
2022-10-05T21:32:48.559Z,2.40
2022-10-05T21:35:35.531Z,2.70
2022-10-05T21:38:24.023Z,2.42
2022-10-05T21:41:11.286Z,2.85
2022-10-05T21:43:58.522Z,3.40
2022-10-05T21:46:45.755Z,2.47
2022-10-05T21:49:33.885Z,2.42
2022-10-05T21:52:21.106Z,2.38
2022-10-05T21:55:12.777Z,2.50
2022-10-05T21:58:00.221Z,2.40
2022-10-05T22:00:47.553Z,2.38
2022-10-05T22:03:34.572Z,2.30
2022-10-05T22:06:21.440Z,2.05
2022-10-05T22:09:08.641Z,2.17
2022-10-05T22:11:57.393Z,2.15
2022-10-05T22:14:44.456Z,2.50
2022-10-05T22:17:32.291Z,2.55
2022-10-05T22:20:21.730Z,2.58
2022-10-05T22:23:08.963Z,2.45
2022-10-05T22:25:56.020Z,2.50
2022-10-05T22:28:46.703Z,2.60
2022-10-05T22:31:33.688Z,2.53
2022-10-05T22:34:20.678Z,2.45
2022-10-05T22:37:12.899Z,2.20
2022-10-05T22:40:00.121Z,2.50
2022-10-05T22:42:47.254Z,2.60
2022-10-05T22:45:35.605Z,2.25
2022-10-05T22:48:22.787Z,2.60
2022-10-05T22:51:10.086Z,2.70
2022-10-05T22:53:57.555Z,2.35
2022-10-05T22:56:44.754Z,2.30
2022-10-05T22:59:31.866Z,2.55
2022-10-05T23:02:20.430Z,2.42
2022-10-05T23:05:08.440Z,2.78
2022-10-05T23:07:55.500Z,2.70
2022-10-05T23:10:43.326Z,2.65
2022-10-05T23:13:30.306Z,2.30
2022-10-05T23:16:20.204Z,2.33
2022-10-05T23:19:08.310Z,2.75
2022-10-05T23:21:55.677Z,2.50
2022-10-05T23:24:42.763Z,2.63
2022-10-05T23:27:30.020Z,2.53
2022-10-05T23:30:17.241Z,3.05
2022-10-05T23:33:04.038Z,2.50
2022-10-05T23:35:59.925Z,2.50
2022-10-05T23:38:46.966Z,2.92
2022-10-05T23:41:34.289Z,2.70
2022-10-05T23:44:22.885Z,3.05
2022-10-05T23:47:09.794Z,2.72
2022-10-05T23:49:56.926Z,2.83
2022-10-05T23:52:45.555Z,2.80
2022-10-05T23:55:33.014Z,2.90
2022-10-05T23:58:20.632Z,2.75
